createdAt,value
2019-05-06T00:01:59.931Z,12.70
2019-05-06T00:04:29.811Z,15.33
2019-05-06T00:06:59.694Z,16.40
2019-05-06T00:09:30.570Z,15.20
2019-05-06T00:12:00.534Z,9.60
2019-05-06T00:14:30.488Z,13.27
2019-05-06T00:17:00.523Z,15.57
2019-05-06T00:19:30.784Z,10.43
2019-05-06T00:22:00.739Z,10.83
2019-05-06T00:24:36.848Z,10.57
2019-05-06T00:27:14.140Z,17.67
2019-05-06T00:29:46.879Z,12.67
2019-05-06T00:32:16.349Z,11.50
2019-05-06T00:34:47.318Z,14.17
2019-05-06T00:37:17.350Z,13.10
2019-05-06T00:40:00.988Z,17.43
2019-05-06T00:42:48.159Z,13.87
2019-05-06T00:45:18.100Z,17.40
2019-05-06T00:47:48.429Z,15.07
2019-05-06T00:50:18.402Z,9.60
2019-05-06T00:52:49.029Z,11.30
2019-05-06T00:55:19.029Z,14.53
2019-05-06T00:57:49.051Z,12.40
2019-05-06T01:00:24.413Z,15.17
2019-05-06T01:02:54.494Z,15.97
2019-05-06T01:05:24.609Z,13.90
2019-05-06T01:07:54.904Z,14.97
2019-05-06T01:10:25.715Z,12.23
2019-05-06T01:13:07.160Z,16.53
2019-05-06T01:15:37.114Z,13.97
2019-05-06T01:18:07.091Z,15.20
2019-05-06T01:20:37.046Z,13.80
2019-05-06T01:23:06.946Z,20.53
2019-05-06T01:25:36.877Z,13.83
2019-05-06T01:28:06.885Z,16.77
2019-05-06T01:30:36.818Z,18.40
2019-05-06T01:33:06.950Z,16.13
2019-05-06T01:35:38.008Z,14.33
2019-05-06T01:38:24.399Z,16.23
2019-05-06T01:41:13.669Z,13.97
2019-05-06T01:43:44.066Z,17.87
2019-05-06T01:46:14.876Z,14.67
2019-05-06T01:48:47.907Z,16.17
2019-05-06T01:51:23.896Z,18.87
2019-05-06T01:53:54.479Z,19.20
2019-05-06T01:56:24.979Z,15.73
2019-05-06T01:58:54.999Z,15.17
2019-05-06T02:01:25.222Z,15.97
2019-05-06T02:03:55.225Z,18.03
2019-05-06T02:06:26.138Z,13.13
2019-05-06T02:08:56.096Z,18.97
2019-05-06T02:11:26.197Z,19.10
2019-05-06T02:13:56.263Z,14.00
2019-05-06T02:16:26.215Z,16.93
2019-05-06T02:18:56.101Z,20.20
2019-05-06T02:21:43.943Z,14.70
2019-05-06T02:24:20.280Z,16.00
2019-05-06T02:26:50.236Z,15.43
2019-05-06T02:29:24.491Z,19.83
2019-05-06T02:32:30.256Z,15.70
2019-05-06T02:35:05.154Z,15.00
2019-05-06T02:37:37.466Z,19.43
2019-05-06T02:40:17.908Z,16.87
2019-05-06T02:42:48.226Z,22.50
2019-05-06T02:45:18.305Z,17.50
2019-05-06T02:48:04.827Z,15.73
2019-05-06T02:50:53.810Z,14.70
2019-05-06T02:53:26.131Z,15.80
2019-05-06T02:55:56.255Z,18.40
2019-05-06T02:58:26.282Z,19.03
2019-05-06T03:00:57.241Z,18.60
2019-05-06T03:03:27.644Z,21.50
2019-05-06T03:05:57.909Z,19.13
2019-05-06T03:08:28.038Z,16.70
2019-05-06T03:10:58.018Z,16.60
2019-05-06T03:13:29.670Z,17.87
2019-05-06T03:15:59.889Z,20.50
2019-05-06T03:18:32.514Z,17.57
2019-05-06T03:21:13.601Z,19.00
2019-05-06T03:23:45.337Z,17.43
2019-05-06T03:26:15.339Z,20.83
2019-05-06T03:28:45.340Z,23.07
2019-05-06T03:31:16.816Z,16.00
2019-05-06T03:34:08.881Z,19.77
2019-05-06T03:36:25.523Z,15.70
2019-05-06T03:38:50.202Z,20.63
2019-05-06T03:41:26.162Z,20.93
2019-05-06T03:43:54.298Z,20.73
2019-05-06T03:46:54.047Z,18.90
2019-05-06T03:49:24.418Z,17.33
2019-05-06T03:51:56.414Z,19.70
2019-05-06T03:54:26.293Z,15.53
2019-05-06T03:56:57.379Z,14.63
2019-05-06T03:59:33.309Z,15.23
2019-05-06T04:02:04.905Z,14.83
2019-05-06T04:04:33.907Z,18.07
2019-05-06T04:07:03.918Z,16.10
2019-05-06T04:09:36.928Z,18.07
2019-05-06T04:12:05.689Z,18.23
2019-05-06T04:14:35.796Z,19.83
2019-05-06T04:17:16.575Z,18.87
2019-05-06T04:19:53.452Z,18.20
2019-05-06T04:22:33.285Z,19.40
2019-05-06T04:25:33.976Z,19.83
2019-05-06T04:28:12.912Z,18.77
2019-05-06T04:30:43.346Z,16.40
2019-05-06T04:33:17.237Z,23.27
2019-05-06T04:35:45.585Z,19.60
2019-05-06T04:38:16.254Z,22.87
2019-05-06T04:40:46.898Z,16.40
2019-05-06T04:43:17.339Z,21.27
2019-05-06T04:45:47.472Z,13.60
2019-05-06T04:48:17.453Z,15.27
2019-05-06T04:50:47.472Z,15.77
2019-05-06T04:53:17.804Z,18.60
2019-05-06T04:55:47.851Z,12.67
2019-05-06T04:58:17.823Z,19.00
2019-05-06T05:00:47.770Z,20.00
2019-05-06T05:03:18.125Z,20.03
2019-05-06T05:05:48.201Z,19.27
2019-05-06T05:08:18.274Z,17.50
2019-05-06T05:11:00.415Z,14.73
2019-05-06T05:13:53.207Z,18.60
2019-05-06T05:16:33.141Z,18.20
2019-05-06T05:19:08.690Z,10.20
2019-05-06T05:21:38.756Z,17.30
2019-05-06T05:24:08.798Z,17.13
2019-05-06T05:26:38.974Z,13.90
2019-05-06T05:29:08.951Z,12.97
2019-05-06T05:31:38.965Z,12.43
2019-05-06T05:34:09.012Z,17.70
2019-05-06T05:36:38.988Z,10.63
2019-05-06T05:39:08.986Z,16.10
2019-05-06T05:41:38.930Z,13.10
2019-05-06T05:44:14.222Z,10.70
2019-05-06T05:46:44.244Z,16.73
2019-05-06T05:49:32.543Z,14.67
2019-05-06T05:52:03.461Z,13.97
2019-05-06T05:54:34.109Z,9.77
2019-05-06T05:57:04.093Z,15.47
2019-05-06T05:59:34.050Z,14.70
2019-05-06T06:02:04.863Z,9.37
2019-05-06T06:04:35.186Z,15.80
2019-05-06T06:07:05.273Z,15.20
2019-05-06T06:09:42.531Z,13.97
2019-05-06T06:12:13.040Z,15.43
2019-05-06T06:14:55.712Z,18.10
2019-05-06T06:17:52.089Z,13.73
2019-05-06T06:20:42.432Z,9.77
2019-05-06T06:23:20.016Z,12.70
2019-05-06T06:25:49.971Z,15.40
2019-05-06T06:28:22.679Z,10.00
2019-05-06T06:31:14.521Z,16.87
2019-05-06T06:33:44.559Z,15.40
2019-05-06T06:36:24.496Z,15.67
2019-05-06T06:39:13.498Z,12.07
2019-05-06T06:41:43.463Z,12.60
2019-05-06T06:44:16.660Z,12.57
2019-05-06T06:46:46.651Z,15.77
2019-05-06T06:49:16.676Z,12.00
2019-05-06T06:51:46.993Z,16.53
2019-05-06T06:54:16.946Z,12.07
2019-05-06T06:57:09.505Z,14.60
2019-05-06T07:00:03.922Z,14.17
2019-05-06T07:02:39.931Z,11.87
2019-05-06T07:05:28.700Z,12.90
2019-05-06T07:07:59.363Z,10.33
2019-05-06T07:10:44.608Z,10.10
2019-05-06T07:13:16.466Z,14.33
2019-05-06T07:15:46.393Z,12.43
2019-05-06T07:18:16.343Z,7.63
2019-05-06T07:21:07.161Z,10.23
2019-05-06T07:23:37.338Z,13.30
2019-05-06T07:26:07.707Z,16.80
2019-05-06T07:28:37.619Z,12.13
2019-05-06T07:31:18.795Z,13.03
2019-05-06T07:33:39.324Z,14.03
2019-05-06T07:36:09.251Z,10.50
2019-05-06T07:38:42.800Z,12.27
2019-05-06T07:41:18.296Z,11.10
2019-05-06T07:44:07.427Z,10.33
2019-05-06T07:47:03.579Z,11.70
2019-05-06T07:49:33.778Z,8.47
2019-05-06T07:52:03.736Z,12.87
2019-05-06T07:54:33.742Z,10.63
2019-05-06T07:57:04.151Z,11.50
2019-05-06T07:59:34.115Z,11.00
2019-05-06T08:02:04.313Z,8.23
2019-05-06T08:04:34.330Z,11.67
2019-05-06T08:07:04.389Z,14.77
2019-05-06T08:09:34.349Z,8.10
2019-05-06T08:12:04.570Z,11.00
2019-05-06T08:14:43.817Z,9.63
2019-05-06T08:17:22.249Z,13.30
2019-05-06T08:19:52.887Z,9.63
2019-05-06T08:22:44.378Z,11.20
2019-05-06T08:25:14.434Z,12.33
2019-05-06T08:27:45.240Z,12.73
2019-05-06T08:30:16.782Z,10.83
2019-05-06T08:32:46.792Z,14.73
2019-05-06T08:35:18.144Z,10.73
2019-05-06T08:37:49.171Z,9.93
2019-05-06T08:40:19.912Z,11.33
2019-05-06T08:42:49.888Z,12.23
2019-05-06T08:45:21.946Z,9.90
2019-05-06T08:47:52.367Z,11.63
2019-05-06T08:50:29.451Z,11.67
2019-05-06T08:53:13.598Z,10.10
2019-05-06T08:55:43.367Z,10.93
2019-05-06T08:58:13.942Z,7.97
2019-05-06T09:00:59.128Z,11.37
2019-05-06T09:03:29.102Z,10.00
2019-05-06T09:05:59.118Z,12.20
2019-05-06T09:08:29.003Z,8.23
2019-05-06T09:10:58.971Z,6.43
2019-05-06T09:13:29.186Z,13.23
2019-05-06T09:15:59.334Z,12.37
2019-05-06T09:18:29.316Z,12.97
2019-05-06T09:20:59.305Z,12.30
2019-05-06T09:23:30.005Z,8.80
2019-05-06T09:26:02.506Z,8.33
2019-05-06T09:28:49.407Z,9.57
2019-05-06T09:31:23.139Z,5.87
2019-05-06T09:33:57.706Z,7.00
2019-05-06T09:36:43.576Z,7.60
2019-05-06T09:39:02.282Z,9.97
2019-05-06T09:41:33.870Z,8.97
2019-05-06T09:44:03.924Z,9.50
2019-05-06T09:46:33.958Z,6.60
2019-05-06T09:49:15.071Z,10.10
2019-05-06T09:51:46.089Z,7.13
2019-05-06T09:54:38.421Z,7.17
2019-05-06T09:57:12.959Z,7.67
2019-05-06T09:59:43.116Z,9.60
2019-05-06T10:02:13.184Z,8.53
2019-05-06T10:04:43.132Z,7.07
2019-05-06T10:07:14.599Z,9.30
2019-05-06T10:09:44.542Z,9.03
2019-05-06T10:12:15.982Z,10.20
2019-05-06T10:14:46.447Z,8.70
2019-05-06T10:17:16.682Z,9.03
2019-05-06T10:19:46.699Z,10.20
2019-05-06T10:22:16.658Z,10.83
2019-05-06T10:24:46.729Z,10.20
2019-05-06T10:27:16.665Z,8.13
2019-05-06T10:30:03.240Z,7.27
2019-05-06T10:32:58.412Z,12.77
2019-05-06T10:35:29.658Z,8.37
2019-05-06T10:38:15.123Z,8.33
2019-05-06T10:41:00.907Z,8.37
2019-05-06T10:43:28.850Z,8.53
2019-05-06T10:46:01.118Z,9.23
2019-05-06T10:48:31.022Z,10.47
2019-05-06T10:51:08.579Z,8.43
2019-05-06T10:53:38.548Z,9.97
2019-05-06T10:56:26.934Z,7.60
2019-05-06T10:58:57.669Z,10.13
2019-05-06T11:01:33.331Z,7.80
2019-05-06T11:04:03.402Z,6.77
2019-05-06T11:06:33.768Z,7.03
2019-05-06T11:09:06.163Z,4.83
2019-05-06T11:11:38.730Z,6.87
2019-05-06T11:14:08.291Z,7.93
2019-05-06T11:16:38.191Z,9.07
2019-05-06T11:19:08.137Z,5.83
2019-05-06T11:21:38.030Z,12.00
2019-05-06T11:24:07.975Z,5.70
2019-05-06T11:26:37.915Z,7.07
2019-05-06T11:29:13.046Z,6.10
2019-05-06T11:31:54.331Z,8.63
2019-05-06T11:34:41.927Z,7.33
2019-05-06T11:37:46.889Z,7.87
2019-05-06T11:40:16.601Z,7.33
2019-05-06T11:42:43.791Z,4.80
2019-05-06T11:45:14.311Z,8.13
2019-05-06T11:47:44.345Z,6.53
2019-05-06T11:50:14.374Z,6.53
2019-05-06T11:52:45.855Z,8.47
2019-05-06T11:55:27.822Z,6.87
2019-05-06T11:57:47.709Z,7.53
2019-05-06T12:00:23.784Z,5.97
2019-05-06T12:02:53.341Z,5.90
2019-05-06T12:05:23.573Z,5.57
2019-05-06T12:08:04.496Z,6.05
2019-05-06T12:10:25.466Z,6.93
2019-05-06T12:12:55.702Z,7.20
2019-05-06T12:15:25.751Z,7.93
2019-05-06T12:17:55.642Z,6.37
2019-05-06T12:20:25.559Z,9.17
2019-05-06T12:22:55.531Z,4.30
2019-05-06T12:25:25.591Z,5.57
2019-05-06T12:27:55.605Z,6.12
2019-05-06T12:30:25.834Z,16.03
2019-05-06T12:33:13.561Z,7.83
2019-05-06T12:35:47.314Z,5.03
2019-05-06T12:38:30.735Z,7.73
2019-05-06T12:40:59.985Z,5.10
2019-05-06T12:43:43.100Z,5.43
2019-05-06T12:46:17.970Z,6.77
2019-05-06T12:48:48.152Z,6.00
2019-05-06T12:51:18.321Z,9.00
2019-05-06T12:53:48.552Z,4.07
2019-05-06T12:56:18.691Z,5.67
2019-05-06T12:58:48.667Z,5.75
2019-05-06T13:01:18.718Z,5.40
2019-05-06T13:03:48.607Z,4.80
2019-05-06T13:06:18.923Z,6.07
2019-05-06T13:08:58.658Z,4.70
2019-05-06T13:11:22.096Z,6.08
2019-05-06T13:13:59.871Z,5.97
2019-05-06T13:16:24.090Z,6.37
2019-05-06T13:18:55.063Z,4.90
2019-05-06T13:21:25.219Z,7.22
2019-05-06T13:24:01.696Z,6.13
2019-05-06T13:26:32.573Z,8.93
2019-05-06T13:29:08.110Z,5.50
2019-05-06T13:31:38.143Z,6.37
2019-05-06T13:34:12.356Z,6.30
2019-05-06T13:36:42.978Z,5.67
2019-05-06T13:39:15.149Z,7.03
2019-05-06T13:41:45.395Z,6.03
2019-05-06T13:44:16.722Z,5.70
2019-05-06T13:46:54.055Z,8.37
2019-05-06T13:49:42.979Z,7.37
2019-05-06T13:52:14.435Z,6.93
2019-05-06T13:54:44.438Z,6.60
2019-05-06T13:57:14.366Z,8.10
2019-05-06T13:59:44.491Z,9.60
2019-05-06T14:02:36.566Z,9.13
2019-05-06T14:05:07.375Z,10.30
2019-05-06T14:07:37.262Z,8.10
2019-05-06T14:10:07.523Z,10.53
2019-05-06T14:12:37.525Z,8.27
2019-05-06T14:15:08.127Z,9.50
2019-05-06T14:17:38.187Z,7.43
2019-05-06T14:20:08.342Z,8.17
2019-05-06T14:22:38.238Z,8.83
2019-05-06T14:25:35.186Z,6.87
2019-05-06T14:28:15.363Z,8.20
2019-05-06T14:30:58.119Z,8.30
2019-05-06T14:33:28.199Z,7.43
2019-05-06T14:35:58.488Z,12.40
2019-05-06T14:38:28.560Z,10.43
2019-05-06T14:41:26.125Z,12.23
2019-05-06T14:43:51.659Z,9.50
2019-05-06T14:46:22.840Z,10.13
2019-05-06T14:48:53.558Z,10.37
2019-05-06T14:51:23.553Z,12.13
2019-05-06T14:53:53.447Z,11.10
2019-05-06T14:56:42.823Z,8.53
2019-05-06T14:59:12.894Z,10.47
2019-05-06T15:01:45.498Z,13.47
2019-05-06T15:04:14.603Z,12.23
2019-05-06T15:06:44.890Z,10.03
2019-05-06T15:09:14.945Z,11.23
2019-05-06T15:11:44.919Z,12.13
2019-05-06T15:14:15.139Z,7.53
2019-05-06T15:16:45.047Z,11.27
2019-05-06T15:19:14.993Z,14.17
2019-05-06T15:21:44.898Z,13.47
2019-05-06T15:24:14.967Z,12.57
2019-05-06T15:26:45.358Z,11.83
2019-05-06T15:29:15.745Z,12.53
2019-05-06T15:32:23.452Z,9.53
2019-05-06T15:35:18.320Z,16.47
2019-05-06T15:37:53.345Z,13.63
2019-05-06T15:40:32.008Z,15.03
2019-05-06T15:42:57.431Z,15.13
2019-05-06T15:45:27.876Z,16.67
2019-05-06T15:47:57.790Z,18.47
2019-05-06T15:50:27.744Z,19.10
2019-05-06T15:52:57.955Z,21.70
2019-05-06T15:55:28.302Z,23.43
2019-05-06T15:57:58.560Z,27.93
2019-05-06T16:00:28.714Z,26.60
2019-05-06T16:02:58.731Z,29.17
2019-05-06T16:05:30.758Z,29.73
2019-05-06T16:08:02.713Z,27.03
2019-05-06T16:10:37.940Z,27.73
2019-05-06T16:13:03.846Z,25.77
2019-05-06T16:15:33.873Z,29.40
2019-05-06T16:18:04.414Z,26.27
2019-05-06T16:20:34.757Z,23.07
2019-05-06T16:23:23.793Z,32.23
2019-05-06T16:25:53.667Z,30.03
2019-05-06T16:28:23.574Z,29.97
2019-05-06T16:30:53.705Z,33.43
2019-05-06T16:33:23.778Z,32.23
2019-05-06T16:35:53.866Z,19.97
2019-05-06T16:38:23.827Z,28.30
2019-05-06T16:41:09.066Z,28.23
2019-05-06T16:43:25.351Z,25.20
2019-05-06T16:45:55.328Z,27.83
2019-05-06T16:48:25.198Z,28.23
2019-05-06T16:50:55.190Z,27.87
2019-05-06T16:53:25.068Z,22.93
2019-05-06T16:56:02.244Z,20.23
2019-05-06T16:58:35.303Z,19.73
2019-05-06T17:01:06.323Z,17.67
2019-05-06T17:03:45.039Z,22.17
2019-05-06T17:06:17.824Z,27.58
2019-05-06T17:08:47.792Z,22.27
2019-05-06T17:11:28.279Z,29.43
2019-05-06T17:13:49.471Z,19.80
2019-05-06T17:16:19.452Z,23.20
2019-05-06T17:18:49.444Z,24.20
2019-05-06T17:21:19.390Z,25.67
2019-05-06T17:23:49.415Z,24.27
2019-05-06T17:26:19.287Z,28.53
2019-05-06T17:29:03.969Z,25.60
2019-05-06T17:31:47.706Z,31.03
2019-05-06T17:34:21.986Z,32.00
2019-05-06T17:36:53.978Z,34.07
2019-05-06T17:39:23.951Z,31.53
2019-05-06T17:41:54.813Z,35.15
2019-05-06T17:44:24.779Z,40.33
2019-05-06T17:47:14.782Z,37.37
2019-05-06T17:49:44.794Z,38.07
2019-05-06T17:52:17.875Z,38.07
2019-05-06T17:54:47.946Z,35.20
2019-05-06T17:57:17.843Z,36.93
2019-05-06T17:59:48.109Z,33.33
2019-05-06T18:02:19.405Z,33.50
2019-05-06T18:04:49.475Z,33.50
2019-05-06T18:07:19.509Z,33.08
2019-05-06T18:09:49.376Z,35.87
2019-05-06T18:12:19.305Z,32.20
2019-05-06T18:14:49.195Z,35.93
2019-05-06T18:17:19.159Z,40.47
2019-05-06T18:19:49.014Z,39.90
2019-05-06T18:22:19.319Z,36.53
2019-05-06T18:24:49.784Z,33.60
2019-05-06T18:27:19.848Z,38.90
2019-05-06T18:29:50.120Z,36.93
2019-05-06T18:32:20.147Z,38.77
2019-05-06T18:34:50.062Z,39.43
2019-05-06T18:37:20.778Z,42.40
2019-05-06T18:39:52.952Z,40.03
2019-05-06T18:42:23.650Z,37.63
2019-05-06T18:44:53.871Z,42.47
2019-05-06T18:47:24.332Z,37.57
2019-05-06T18:49:54.747Z,40.77
2019-05-06T18:52:24.753Z,39.57
2019-05-06T18:54:54.916Z,40.87
2019-05-06T18:57:25.013Z,43.63
2019-05-06T18:59:55.083Z,40.87
2019-05-06T19:02:26.820Z,38.07
2019-05-06T19:05:13.391Z,41.93
2019-05-06T19:07:45.282Z,41.40
2019-05-06T19:10:22.366Z,48.53
2019-05-06T19:12:52.778Z,44.63
2019-05-06T19:15:22.946Z,47.43
2019-05-06T19:17:53.009Z,46.40
2019-05-06T19:20:24.508Z,42.83
2019-05-06T19:22:54.518Z,44.20
2019-05-06T19:25:26.457Z,43.57
2019-05-06T19:27:56.113Z,42.10
2019-05-06T19:30:26.465Z,43.77
2019-05-06T19:32:56.426Z,41.20
2019-05-06T19:35:26.321Z,41.13
2019-05-06T19:37:56.242Z,38.17
2019-05-06T19:40:26.544Z,40.17
2019-05-06T19:42:56.473Z,36.37
2019-05-06T19:45:27.906Z,37.73
2019-05-06T19:47:58.416Z,38.03
2019-05-06T19:50:28.454Z,38.20
2019-05-06T19:52:58.603Z,39.30
2019-05-06T19:55:29.216Z,38.63
2019-05-06T19:57:59.249Z,38.63
2019-05-06T20:00:29.205Z,34.97
2019-05-06T20:02:59.517Z,36.63
2019-05-06T20:05:35.995Z,33.63
2019-05-06T20:08:42.212Z,37.43
2019-05-06T20:11:23.961Z,38.70
2019-05-06T20:13:53.968Z,36.47
2019-05-06T20:16:23.836Z,41.47
2019-05-06T20:18:53.739Z,38.47
2019-05-06T20:21:23.749Z,37.73
2019-05-06T20:23:53.864Z,37.97
2019-05-06T20:26:23.823Z,45.67
2019-05-06T20:28:53.790Z,43.20
2019-05-06T20:31:23.745Z,43.87
2019-05-06T20:33:53.578Z,39.03
2019-05-06T20:36:23.448Z,42.00
2019-05-06T20:38:53.312Z,41.23
2019-05-06T20:41:23.591Z,41.83
2019-05-06T20:43:53.575Z,39.10
2019-05-06T20:46:23.627Z,43.97
2019-05-06T20:48:53.743Z,34.13
2019-05-06T20:51:23.709Z,41.53
2019-05-06T20:53:53.654Z,44.30
2019-05-06T20:56:24.686Z,47.93
2019-05-06T20:58:54.579Z,46.37
2019-05-06T21:01:24.852Z,37.33
2019-05-06T21:03:54.803Z,40.40
2019-05-06T21:06:24.877Z,36.57
2019-05-06T21:08:54.696Z,41.50
2019-05-06T21:11:28.993Z,39.10
2019-05-06T21:13:56.394Z,40.13
2019-05-06T21:16:26.706Z,43.57
2019-05-06T21:18:58.558Z,37.97
2019-05-06T21:21:28.177Z,33.87
2019-05-06T21:23:58.088Z,41.07
2019-05-06T21:26:28.027Z,41.93
2019-05-06T21:28:59.022Z,36.10
2019-05-06T21:31:29.948Z,38.23
2019-05-06T21:33:59.822Z,36.53
2019-05-06T21:36:29.801Z,42.23
2019-05-06T21:39:01.475Z,38.50
2019-05-06T21:41:32.787Z,37.13
2019-05-06T21:44:02.856Z,38.77
2019-05-06T21:46:32.752Z,45.37
2019-05-06T21:49:02.805Z,39.60
2019-05-06T21:51:32.891Z,38.10
2019-05-06T21:54:02.971Z,38.93
2019-05-06T21:56:33.184Z,40.30
2019-05-06T21:59:03.083Z,37.13
2019-05-06T22:01:33.175Z,37.30
2019-05-06T22:04:03.370Z,39.37
2019-05-06T22:06:33.398Z,36.70
2019-05-06T22:09:05.067Z,39.10
2019-05-06T22:11:35.424Z,38.10
2019-05-06T22:14:05.494Z,38.30
2019-05-06T22:16:35.773Z,37.60
2019-05-06T22:19:05.831Z,45.00
2019-05-06T22:21:36.511Z,37.60
2019-05-06T22:24:07.284Z,38.43
2019-05-06T22:26:37.243Z,38.47
2019-05-06T22:29:07.214Z,37.13
2019-05-06T22:31:38.133Z,35.90
2019-05-06T22:34:08.464Z,38.23
2019-05-06T22:36:38.411Z,38.97
2019-05-06T22:39:08.462Z,37.23
2019-05-06T22:41:39.985Z,38.60
2019-05-06T22:44:13.707Z,37.83
2019-05-06T22:46:42.438Z,32.37
2019-05-06T22:49:13.317Z,40.83
2019-05-06T22:51:43.552Z,43.67
2019-05-06T22:54:13.525Z,42.17
2019-05-06T22:56:43.518Z,41.53
2019-05-06T22:59:13.573Z,36.13
2019-05-06T23:01:54.599Z,39.20
2019-05-06T23:04:26.753Z,41.33
2019-05-06T23:06:56.797Z,40.17
2019-05-06T23:09:26.690Z,42.83
2019-05-06T23:11:56.685Z,42.10
2019-05-06T23:14:31.576Z,45.60
2019-05-06T23:16:58.384Z,42.30
2019-05-06T23:19:28.385Z,39.03
2019-05-06T23:21:58.467Z,34.30
2019-05-06T23:24:28.635Z,45.90
2019-05-06T23:26:58.628Z,41.50
2019-05-06T23:29:28.589Z,43.83
2019-05-06T23:31:59.011Z,41.17
2019-05-06T23:34:29.262Z,44.60
2019-05-06T23:37:26.633Z,44.27
2019-05-06T23:40:38.583Z,42.40
2019-05-06T23:43:44.750Z,49.17
2019-05-06T23:46:52.866Z,51.37
2019-05-06T23:50:00.254Z,51.97
2019-05-06T23:53:06.348Z,46.20
2019-05-06T23:56:13.185Z,45.77
2019-05-06T23:58:43.154Z,48.77
